Sfax, Tunisia
Current Conditions -  °F | °C
As of 5:00 PM on Monday 22 Dec 2014 (Local Time) from DTTX Reporting Station
Broken Clouds Broken Clouds  
Wind Chill: 63°   Ceiling: 2300
Heat Index: 63°   Visibility: 6mi
Dew Point: 45°   Wind: 5mph
Humidity: 52%   Direction: 20°NNE
Pressure: 30.45"   Gusts: NA
Location:  34.75°N, 10.76°E
Report Text: DTTX 221600Z 02004KT 9999 BKN023 SCT030 17/07 Q1031 NOSIG
Loading
Personal Weather Stations






























Interactive Weather Map New forecast layout! Learn more

10-Day Weather Forecast

Advertisements
Track Severe Weather on mobile